sensor_id;sensor_type;location;lat;lon;timestamp;temperature;humidity
13375;DHT22;6756;51.354;15.754;2023-06-22T00:03:07;18.40;1.00
13375;DHT22;6756;51.354;15.754;2023-06-22T00:07:08;18.30;83.80
13375;DHT22;6756;51.354;15.754;2023-06-22T00:11:09;18.20;1.00
13375;DHT22;6756;51.354;15.754;2023-06-22T00:15:10;18.20;99.90
13375;DHT22;6756;51.354;15.754;2023-06-22T00:19:11;18.20;94.40
13375;DHT22;6756;51.354;15.754;2023-06-22T00:23:12;18.20;99.90
13375;DHT22;6756;51.354;15.754;2023-06-22T00:27:17;18.10;99.90
13375;DHT22;6756;51.354;15.754;2023-06-22T00:31:18;18.10;99.90
13375;DHT22;6756;51.354;15.754;2023-06-22T00:35:20;18.10;1.00
13375;DHT22;6756;51.354;15.754;2023-06-22T00:39:24;18.00;1.00
13375;DHT22;6756;51.354;15.754;2023-06-22T00:43:25;18.00;99.90
13375;DHT22;6756;51.354;15.754;2023-06-22T00:47:26;17.90;99.90
13375;DHT22;6756;51.354;15.754;2023-06-22T00:51:28;17.90;1.00
13375;DHT22;6756;51.354;15.754;2023-06-22T00:55:29;17.80;1.00
13375;DHT22;6756;51.354;15.754;2023-06-22T00:59:30;17.80;1.00
13375;DHT22;6756;51.354;15.754;2023-06-22T01:03:33;17.80;99.90
13375;DHT22;6756;51.354;15.754;2023-06-22T01:12:01;17.70;1.00
13375;DHT22;6756;51.354;15.754;2023-06-22T01:20:22;17.70;99.90
13375;DHT22;6756;51.354;15.754;2023-06-22T01:24:28;17.70;99.90
13375;DHT22;6756;51.354;15.754;2023-06-22T01:28:49;17.60;99.90
13375;DHT22;6756;51.354;15.754;2023-06-22T01:33:03;17.60;99.90
13375;DHT22;6756;51.354;15.754;2023-06-22T01:37:06;17.50;14.80
13375;DHT22;6756;51.354;15.754;2023-06-22T01:41:07;17.50;1.00
13375;DHT22;6756;51.354;15.754;2023-06-22T01:45:12;17.50;99.90
13375;DHT22;6756;51.354;15.754;2023-06-22T01:49:17;17.40;1.00
13375;DHT22;6756;51.354;15.754;2023-06-22T01:53:18;17.30;99.90
13375;DHT22;6756;51.354;15.754;2023-06-22T01:57:21;17.30;15.40
13375;DHT22;6756;51.354;15.754;2023-06-22T02:01:31;17.20;99.90
13375;DHT22;6756;51.354;15.754;2023-06-22T02:05:41;17.20;1.00
13375;DHT22;6756;51.354;15.754;2023-06-22T02:09:45;17.10;99.90
13375;DHT22;6756;51.354;15.754;2023-06-22T02:13:47;17.10;99.90
13375;DHT22;6756;51.354;15.754;2023-06-22T02:17:49;17.00;1.00
13375;DHT22;6756;51.354;15.754;2023-06-22T02:21:50;17.00;99.90
13375;DHT22;6756;51.354;15.754;2023-06-22T02:25:52;16.90;99.90
13375;DHT22;6756;51.354;15.754;2023-06-22T02:29:53;16.80;1.00
13375;DHT22;6756;51.354;15.754;2023-06-22T02:33:54;16.90;1.00
13375;DHT22;6756;51.354;15.754;2023-06-22T02:37:54;16.80;1.00
13375;DHT22;6756;51.354;15.754;2023-06-22T02:41:55;16.80;1.00
13375;DHT22;6756;51.354;15.754;2023-06-22T02:45:56;16.80;1.00
13375;DHT22;6756;51.354;15.754;2023-06-22T02:49:57;16.70;1.00
13375;DHT22;6756;51.354;15.754;2023-06-22T02:53:58;16.70;1.00
13375;DHT22;6756;51.354;15.754;2023-06-22T02:58:00;16.80;1.00
13375;DHT22;6756;51.354;15.754;2023-06-22T03:02:14;16.80;1.00
13375;DHT22;6756;51.354;15.754;2023-06-22T03:06:15;16.90;1.00
13375;DHT22;6756;51.354;15.754;2023-06-22T03:10:16;17.00;1.00
13375;DHT22;6756;51.354;15.754;2023-06-22T03:14:17;17.30;99.90
13375;DHT22;6756;51.354;15.754;2023-06-22T03:18:21;17.70;99.90
13375;DHT22;6756;51.354;15.754;2023-06-22T03:22:25;18.00;1.00
13375;DHT22;6756;51.354;15.754;2023-06-22T03:26:26;18.60;1.00
13375;DHT22;6756;51.354;15.754;2023-06-22T03:30:30;19.10;1.00
13375;DHT22;6756;51.354;15.754;2023-06-22T03:34:31;19.80;99.90
13375;DHT22;6756;51.354;15.754;2023-06-22T03:38:40;20.40;99.90
13375;DHT22;6756;51.354;15.754;2023-06-22T03:42:41;21.00;79.50
13375;DHT22;6756;51.354;15.754;2023-06-22T03:46:42;21.60;1.00
13375;DHT22;6756;51.354;15.754;2023-06-22T03:50:46;22.10;99.90
13375;DHT22;6756;51.354;15.754;2023-06-22T03:54:48;22.60;99.90
13375;DHT22;6756;51.354;15.754;2023-06-22T03:58:49;23.10;99.90
13375;DHT22;6756;51.354;15.754;2023-06-22T04:02:53;23.60;99.90
13375;DHT22;6756;51.354;15.754;2023-06-22T04:06:53;23.90;99.90
13375;DHT22;6756;51.354;15.754;2023-06-22T04:10:54;24.30;83.60
13375;DHT22;6756;51.354;15.754;2023-06-22T04:14:55;24.20;57.20
13375;DHT22;6756;51.354;15.754;2023-06-22T04:18:56;24.30;63.20
13375;DHT22;6756;51.354;15.754;2023-06-22T04:22:57;24.50;59.80
13375;DHT22;6756;51.354;15.754;2023-06-22T04:26:58;24.70;52.90
13375;DHT22;6756;51.354;15.754;2023-06-22T04:31:04;25.00;39.30
13375;DHT22;6756;51.354;15.754;2023-06-22T04:35:05;25.20;35.60
13375;DHT22;6756;51.354;15.754;2023-06-22T04:39:08;25.80;13.80
13375;DHT22;6756;51.354;15.754;2023-06-22T04:43:10;26.40;1.00
13375;DHT22;6756;51.354;15.754;2023-06-22T04:47:13;26.70;1.00
13375;DHT22;6756;51.354;15.754;2023-06-22T04:51:14;26.80;1.00
13375;DHT22;6756;51.354;15.754;2023-06-22T04:55:15;26.70;1.00
13375;DHT22;6756;51.354;15.754;2023-06-22T04:59:18;26.60;1.00
13375;DHT22;6756;51.354;15.754;2023-06-22T05:03:20;26.90;1.00
13375;DHT22;6756;51.354;15.754;2023-06-22T05:07:20;27.30;1.00
13375;DHT22;6756;51.354;15.754;2023-06-22T05:11:25;27.50;1.00
13375;DHT22;6756;51.354;15.754;2023-06-22T05:15:26;27.40;1.00
13375;DHT22;6756;51.354;15.754;2023-06-22T05:19:31;26.70;1.00
13375;DHT22;6756;51.354;15.754;2023-06-22T05:23:34;26.00;1.00
13375;DHT22;6756;51.354;15.754;2023-06-22T05:27:35;25.30;20.60
13375;DHT22;6756;51.354;15.754;2023-06-22T05:31:40;24.90;90.20
13375;DHT22;6756;51.354;15.754;2023-06-22T05:35:41;24.60;99.90
13375;DHT22;6756;51.354;15.754;2023-06-22T05:39:42;24.40;99.90
13375;DHT22;6756;51.354;15.754;2023-06-22T05:43:47;24.20;99.90
13375;DHT22;6756;51.354;15.754;2023-06-22T05:47:48;24.20;99.90
13375;DHT22;6756;51.354;15.754;2023-06-22T05:51:49;24.30;99.90
13375;DHT22;6756;51.354;15.754;2023-06-22T05:55:50;24.40;99.90
13375;DHT22;6756;51.354;15.754;2023-06-22T05:59:51;24.30;99.90
13375;DHT22;6756;51.354;15.754;2023-06-22T06:03:54;24.40;99.90
13375;DHT22;6756;51.354;15.754;2023-06-22T06:07:55;24.60;99.90
13375;DHT22;6756;51.354;15.754;2023-06-22T06:11:56;24.60;99.90
13375;DHT22;6756;51.354;15.754;2023-06-22T06:15:57;24.80;99.90
13375;DHT22;6756;51.354;15.754;2023-06-22T06:20:02;25.00;99.90
13375;DHT22;6756;51.354;15.754;2023-06-22T06:24:05;25.30;99.90
13375;DHT22;6756;51.354;15.754;2023-06-22T06:28:06;25.60;27.10
13375;DHT22;6756;51.354;15.754;2023-06-22T06:32:08;25.70;18.40
13375;DHT22;6756;51.354;15.754;2023-06-22T06:36:09;25.80;9.50
13375;DHT22;6756;51.354;15.754;2023-06-22T06:40:11;25.90;8.80
13375;DHT22;6756;51.354;15.754;2023-06-22T06:44:12;26.10;13.10
13375;DHT22;6756;51.354;15.754;2023-06-22T06:48:14;26.30;1.00
13375;DHT22;6756;51.354;15.754;2023-06-22T06:52:15;26.30;1.00
13375;DHT22;6756;51.354;15.754;2023-06-22T06:56:16;26.30;1.00
13375;DHT22;6756;51.354;15.754;2023-06-22T07:00:18;26.30;1.00
13375;DHT22;6756;51.354;15.754;2023-06-22T07:04:19;26.30;1.00
13375;DHT22;6756;51.354;15.754;2023-06-22T07:08:19;26.30;1.00
13375;DHT22;6756;51.354;15.754;2023-06-22T07:12:21;26.30;1.00
13375;DHT22;6756;51.354;15.754;2023-06-22T07:16:25;26.30;1.00
13375;DHT22;6756;51.354;15.754;2023-06-22T07:20:28;26.40;1.00
13375;DHT22;6756;51.354;15.754;2023-06-22T07:24:29;26.60;1.00
13375;DHT22;6756;51.354;15.754;2023-06-22T07:28:30;26.60;1.00
13375;DHT22;6756;51.354;15.754;2023-06-22T07:32:37;26.70;1.00
13375;DHT22;6756;51.354;15.754;2023-06-22T07:36:38;27.00;1.00
13375;DHT22;6756;51.354;15.754;2023-06-22T07:40:42;27.20;1.00
13375;DHT22;6756;51.354;15.754;2023-06-22T07:44:44;27.20;1.00
13375;DHT22;6756;51.354;15.754;2023-06-22T07:48:47;27.20;1.00
13375;DHT22;6756;51.354;15.754;2023-06-22T07:52:48;27.40;1.00
13375;DHT22;6756;51.354;15.754;2023-06-22T07:56:49;27.30;1.00
13375;DHT22;6756;51.354;15.754;2023-06-22T08:00:50;27.30;1.00
13375;DHT22;6756;51.354;15.754;2023-06-22T08:04:51;27.30;1.00
13375;DHT22;6756;51.354;15.754;2023-06-22T08:08:55;27.30;1.00
13375;DHT22;6756;51.354;15.754;2023-06-22T08:12:59;27.50;1.00
13375;DHT22;6756;51.354;15.754;2023-06-22T08:17:00;27.80;1.00
13375;DHT22;6756;51.354;15.754;2023-06-22T08:21:01;28.20;1.00
13375;DHT22;6756;51.354;15.754;2023-06-22T08:25:09;28.60;1.00
13375;DHT22;6756;51.354;15.754;2023-06-22T08:29:11;28.60;1.00
13375;DHT22;6756;51.354;15.754;2023-06-22T08:33:12;28.40;1.00
13375;DHT22;6756;51.354;15.754;2023-06-22T08:37:13;28.40;1.00
13375;DHT22;6756;51.354;15.754;2023-06-22T08:41:19;28.30;1.00
13375;DHT22;6756;51.354;15.754;2023-06-22T08:45:20;28.40;1.00
13375;DHT22;6756;51.354;15.754;2023-06-22T08:49:23;28.60;1.00
13375;DHT22;6756;51.354;15.754;2023-06-22T08:53:24;28.60;1.00
13375;DHT22;6756;51.354;15.754;2023-06-22T08:57:25;28.40;1.00
13375;DHT22;6756;51.354;15.754;2023-06-22T09:01:26;28.60;1.00
13375;DHT22;6756;51.354;15.754;2023-06-22T09:05:27;28.80;1.00
13375;DHT22;6756;51.354;15.754;2023-06-22T09:09:28;28.80;1.00
13375;DHT22;6756;51.354;15.754;2023-06-22T09:13:30;28.70;1.00
13375;DHT22;6756;51.354;15.754;2023-06-22T09:17:33;28.70;1.00
13375;DHT22;6756;51.354;15.754;2023-06-22T09:21:36;28.70;1.00
13375;DHT22;6756;51.354;15.754;2023-06-22T09:25:37;28.80;1.00
13375;DHT22;6756;51.354;15.754;2023-06-22T09:29:38;29.20;1.00
13375;DHT22;6756;51.354;15.754;2023-06-22T09:33:40;29.40;1.00
13375;DHT22;6756;51.354;15.754;2023-06-22T09:37:44;29.50;1.00
13375;DHT22;6756;51.354;15.754;2023-06-22T09:41:45;29.60;1.00
13375;DHT22;6756;51.354;15.754;2023-06-22T09:45:51;29.70;1.00
13375;DHT22;6756;51.354;15.754;2023-06-22T09:49:52;29.80;1.00
13375;DHT22;6756;51.354;15.754;2023-06-22T09:53:53;29.50;1.00
13375;DHT22;6756;51.354;15.754;2023-06-22T09:57:54;29.20;1.00
13375;DHT22;6756;51.354;15.754;2023-06-22T10:01:56;28.90;1.00
13375;DHT22;6756;51.354;15.754;2023-06-22T10:05:57;29.20;1.00
13375;DHT22;6756;51.354;15.754;2023-06-22T10:09:58;29.60;1.00
13375;DHT22;6756;51.354;15.754;2023-06-22T10:13:59;29.80;1.00
13375;DHT22;6756;51.354;15.754;2023-06-22T10:18:06;30.20;1.00
13375;DHT22;6756;51.354;15.754;2023-06-22T10:22:18;30.30;1.00
13375;DHT22;6756;51.354;15.754;2023-06-22T10:26:18;30.50;1.00
13375;DHT22;6756;51.354;15.754;2023-06-22T10:30:20;30.80;1.00
13375;DHT22;6756;51.354;15.754;2023-06-22T10:34:23;30.80;1.00
13375;DHT22;6756;51.354;15.754;2023-06-22T10:38:30;30.80;1.00
13375;DHT22;6756;51.354;15.754;2023-06-22T10:42:31;30.60;1.00
13375;DHT22;6756;51.354;15.754;2023-06-22T10:46:32;30.40;1.00
13375;DHT22;6756;51.354;15.754;2023-06-22T10:50:33;30.20;1.00
13375;DHT22;6756;51.354;15.754;2023-06-22T10:54:34;30.30;1.00
13375;DHT22;6756;51.354;15.754;2023-06-22T10:58:36;30.70;1.00
13375;DHT22;6756;51.354;15.754;2023-06-22T11:02:37;30.80;1.00
13375;DHT22;6756;51.354;15.754;2023-06-22T11:06:38;30.90;1.00
13375;DHT22;6756;51.354;15.754;2023-06-22T11:10:39;30.80;1.00
13375;DHT22;6756;51.354;15.754;2023-06-22T11:14:40;30.70;1.00
13375;DHT22;6756;51.354;15.754;2023-06-22T11:18:41;30.10;1.00
13375;DHT22;6756;51.354;15.754;2023-06-22T11:22:43;29.90;1.00
13375;DHT22;6756;51.354;15.754;2023-06-22T11:26:47;29.70;1.00
13375;DHT22;6756;51.354;15.754;2023-06-22T11:30:48;29.70;1.00
13375;DHT22;6756;51.354;15.754;2023-06-22T11:34:50;30.00;1.00
13375;DHT22;6756;51.354;15.754;2023-06-22T11:38:51;30.20;1.00
13375;DHT22;6756;51.354;15.754;2023-06-22T11:42:52;30.30;1.00
13375;DHT22;6756;51.354;15.754;2023-06-22T11:46:53;30.60;1.00
13375;DHT22;6756;51.354;15.754;2023-06-22T11:50:54;30.90;1.00
13375;DHT22;6756;51.354;15.754;2023-06-22T11:54:55;30.90;1.00
13375;DHT22;6756;51.354;15.754;2023-06-22T11:58:56;31.10;1.00
13375;DHT22;6756;51.354;15.754;2023-06-22T12:03:00;31.10;1.00
13375;DHT22;6756;51.354;15.754;2023-06-22T12:07:01;31.50;1.00
13375;DHT22;6756;51.354;15.754;2023-06-22T12:11:02;31.80;1.00
13375;DHT22;6756;51.354;15.754;2023-06-22T12:15:04;31.70;1.00
13375;DHT22;6756;51.354;15.754;2023-06-22T12:19:05;31.10;1.00
13375;DHT22;6756;51.354;15.754;2023-06-22T12:23:06;30.60;1.00
13375;DHT22;6756;51.354;15.754;2023-06-22T12:27:07;30.80;1.00
13375;DHT22;6756;51.354;15.754;2023-06-22T12:31:08;30.90;1.00
13375;DHT22;6756;51.354;15.754;2023-06-22T12:35:09;31.20;1.00
13375;DHT22;6756;51.354;15.754;2023-06-22T12:39:14;31.90;1.00
13375;DHT22;6756;51.354;15.754;2023-06-22T12:43:15;32.20;1.00
13375;DHT22;6756;51.354;15.754;2023-06-22T12:47:16;32.10;1.00
13375;DHT22;6756;51.354;15.754;2023-06-22T12:51:24;32.30;1.00
13375;DHT22;6756;51.354;15.754;2023-06-22T12:55:25;32.40;1.00
13375;DHT22;6756;51.354;15.754;2023-06-22T12:59:26;32.60;1.00
13375;DHT22;6756;51.354;15.754;2023-06-22T13:03:27;32.60;1.00
13375;DHT22;6756;51.354;15.754;2023-06-22T13:07:28;32.80;1.00
13375;DHT22;6756;51.354;15.754;2023-06-22T13:11:29;32.80;1.00
13375;DHT22;6756;51.354;15.754;2023-06-22T13:15:30;32.90;1.00
13375;DHT22;6756;51.354;15.754;2023-06-22T13:19:37;33.10;1.00
13375;DHT22;6756;51.354;15.754;2023-06-22T13:23:38;33.10;99.90
13375;DHT22;6756;51.354;15.754;2023-06-22T13:27:40;32.70;99.90
13375;DHT22;6756;51.354;15.754;2023-06-22T13:31:43;32.40;99.90
13375;DHT22;6756;51.354;15.754;2023-06-22T13:35:44;32.00;99.90
13375;DHT22;6756;51.354;15.754;2023-06-22T13:39:45;31.70;1.00
13375;DHT22;6756;51.354;15.754;2023-06-22T13:43:46;31.50;1.00
13375;DHT22;6756;51.354;15.754;2023-06-22T13:47:47;31.20;1.00
13375;DHT22;6756;51.354;15.754;2023-06-22T13:51:48;31.50;1.00
13375;DHT22;6756;51.354;15.754;2023-06-22T13:55:49;31.80;1.00
13375;DHT22;6756;51.354;15.754;2023-06-22T13:59:54;32.20;1.00
13375;DHT22;6756;51.354;15.754;2023-06-22T14:03:55;32.20;1.00
13375;DHT22;6756;51.354;15.754;2023-06-22T14:07:58;32.10;1.00
13375;DHT22;6756;51.354;15.754;2023-06-22T14:12:03;32.10;1.00
13375;DHT22;6756;51.354;15.754;2023-06-22T14:16:07;32.10;1.00
13375;DHT22;6756;51.354;15.754;2023-06-22T14:20:08;32.00;1.00
13375;DHT22;6756;51.354;15.754;2023-06-22T14:24:10;32.20;1.00
13375;DHT22;6756;51.354;15.754;2023-06-22T14:28:11;32.40;1.00
13375;DHT22;6756;51.354;15.754;2023-06-22T14:32:12;32.30;1.00
13375;DHT22;6756;51.354;15.754;2023-06-22T14:36:14;32.40;99.90
13375;DHT22;6756;51.354;15.754;2023-06-22T14:40:15;32.40;99.90
13375;DHT22;6756;51.354;15.754;2023-06-22T14:44:16;32.00;99.90
13375;DHT22;6756;51.354;15.754;2023-06-22T14:48:22;31.50;99.90
13375;DHT22;6756;51.354;15.754;2023-06-22T14:52:23;31.10;99.90
13375;DHT22;6756;51.354;15.754;2023-06-22T14:56:25;31.00;1.00
13375;DHT22;6756;51.354;15.754;2023-06-22T15:00:26;31.00;1.00
13375;DHT22;6756;51.354;15.754;2023-06-22T15:04:27;31.10;1.00
13375;DHT22;6756;51.354;15.754;2023-06-22T15:08:39;31.20;1.00
13375;DHT22;6756;51.354;15.754;2023-06-22T15:12:40;31.40;1.00
13375;DHT22;6756;51.354;15.754;2023-06-22T15:16:50;31.60;1.00
13375;DHT22;6756;51.354;15.754;2023-06-22T15:20:53;31.60;1.00
13375;DHT22;6756;51.354;15.754;2023-06-22T15:24:54;31.70;1.00
13375;DHT22;6756;51.354;15.754;2023-06-22T15:28:58;31.80;1.00
13375;DHT22;6756;51.354;15.754;2023-06-22T15:33:00;31.60;99.90
13375;DHT22;6756;51.354;15.754;2023-06-22T15:37:01;31.30;99.90
13375;DHT22;6756;51.354;15.754;2023-06-22T15:41:03;30.80;1.00
13375;DHT22;6756;51.354;15.754;2023-06-22T15:45:05;30.80;1.00
13375;DHT22;6756;51.354;15.754;2023-06-22T15:49:07;30.80;1.00
13375;DHT22;6756;51.354;15.754;2023-06-22T15:53:08;31.00;1.00
13375;DHT22;6756;51.354;15.754;2023-06-22T15:57:09;31.10;1.00
13375;DHT22;6756;51.354;15.754;2023-06-22T16:01:13;31.10;1.00
13375;DHT22;6756;51.354;15.754;2023-06-22T16:05:14;31.20;99.90
13375;DHT22;6756;51.354;15.754;2023-06-22T16:09:15;30.90;99.90
13375;DHT22;6756;51.354;15.754;2023-06-22T16:13:16;30.60;99.90
13375;DHT22;6756;51.354;15.754;2023-06-22T16:17:17;30.50;1.00
13375;DHT22;6756;51.354;15.754;2023-06-22T16:21:18;30.60;1.00
13375;DHT22;6756;51.354;15.754;2023-06-22T16:25:19;30.70;1.00
13375;DHT22;6756;51.354;15.754;2023-06-22T16:29:20;30.70;1.00
13375;DHT22;6756;51.354;15.754;2023-06-22T16:33:21;30.80;99.90
13375;DHT22;6756;51.354;15.754;2023-06-22T16:37:22;30.80;99.90
13375;DHT22;6756;51.354;15.754;2023-06-22T16:41:23;30.70;99.90
13375;DHT22;6756;51.354;15.754;2023-06-22T16:45:26;30.40;1.00
13375;DHT22;6756;51.354;15.754;2023-06-22T16:49:27;30.30;1.00
13375;DHT22;6756;51.354;15.754;2023-06-22T16:53:29;30.40;1.00
13375;DHT22;6756;51.354;15.754;2023-06-22T16:57:30;30.50;1.00
13375;DHT22;6756;51.354;15.754;2023-06-22T17:01:33;30.50;1.00
13375;DHT22;6756;51.354;15.754;2023-06-22T17:05:35;30.50;1.00
13375;DHT22;6756;51.354;15.754;2023-06-22T17:09:45;30.50;1.00
13375;DHT22;6756;51.354;15.754;2023-06-22T17:13:46;30.50;1.00
13375;DHT22;6756;51.354;15.754;2023-06-22T17:17:51;30.50;1.00
13375;DHT22;6756;51.354;15.754;2023-06-22T17:21:53;30.80;99.90
13375;DHT22;6756;51.354;15.754;2023-06-22T17:25:58;31.10;99.90
13375;DHT22;6756;51.354;15.754;2023-06-22T17:30:07;31.30;99.90
13375;DHT22;6756;51.354;15.754;2023-06-22T17:34:09;31.60;99.90
13375;DHT22;6756;51.354;15.754;2023-06-22T17:38:22;31.50;99.90
13375;DHT22;6756;51.354;15.754;2023-06-22T17:42:23;31.60;99.90
13375;DHT22;6756;51.354;15.754;2023-06-22T17:46:24;31.60;99.90
13375;DHT22;6756;51.354;15.754;2023-06-22T17:50:26;31.40;99.90
13375;DHT22;6756;51.354;15.754;2023-06-22T17:54:31;31.20;99.90
13375;DHT22;6756;51.354;15.754;2023-06-22T17:58:32;31.00;99.90
13375;DHT22;6756;51.354;15.754;2023-06-22T18:02:36;30.90;99.90
13375;DHT22;6756;51.354;15.754;2023-06-22T18:06:45;30.60;99.90
13375;DHT22;6756;51.354;15.754;2023-06-22T18:10:47;30.30;99.90
13375;DHT22;6756;51.354;15.754;2023-06-22T18:14:52;29.90;99.90
13375;DHT22;6756;51.354;15.754;2023-06-22T18:18:54;29.50;99.90
13375;DHT22;6756;51.354;15.754;2023-06-22T18:22:57;28.90;99.90
13375;DHT22;6756;51.354;15.754;2023-06-22T18:26:59;28.30;99.90
13375;DHT22;6756;51.354;15.754;2023-06-22T18:31:02;27.80;99.90
13375;DHT22;6756;51.354;15.754;2023-06-22T18:35:04;27.40;99.90
13375;DHT22;6756;51.354;15.754;2023-06-22T18:39:06;27.00;1.00
13375;DHT22;6756;51.354;15.754;2023-06-22T18:43:08;26.70;1.00
13375;DHT22;6756;51.354;15.754;2023-06-22T18:47:13;26.40;1.00
13375;DHT22;6756;51.354;15.754;2023-06-22T18:51:15;26.20;1.00
13375;DHT22;6756;51.354;15.754;2023-06-22T18:55:16;26.00;1.00
13375;DHT22;6756;51.354;15.754;2023-06-22T18:59:17;25.80;1.00
13375;DHT22;6756;51.354;15.754;2023-06-22T19:03:38;25.60;1.00
13375;DHT22;6756;51.354;15.754;2023-06-22T19:12:18;25.30;1.00
13375;DHT22;6756;51.354;15.754;2023-06-22T19:16:29;25.10;1.00
13375;DHT22;6756;51.354;15.754;2023-06-22T19:20:33;25.00;1.00
13375;DHT22;6756;51.354;15.754;2023-06-22T19:24:50;24.80;1.00
13375;DHT22;6756;51.354;15.754;2023-06-22T19:28:53;24.70;1.00
13375;DHT22;6756;51.354;15.754;2023-06-22T19:32:59;24.60;1.00
13375;DHT22;6756;51.354;15.754;2023-06-22T19:37:00;24.50;1.00
13375;DHT22;6756;51.354;15.754;2023-06-22T19:41:01;24.40;1.00
13375;DHT22;6756;51.354;15.754;2023-06-22T19:45:02;24.30;1.00
13375;DHT22;6756;51.354;15.754;2023-06-22T19:49:04;24.20;1.00
13375;DHT22;6756;51.354;15.754;2023-06-22T19:53:12;24.10;1.00
13375;DHT22;6756;51.354;15.754;2023-06-22T19:57:16;24.00;1.00
13375;DHT22;6756;51.354;15.754;2023-06-22T20:01:17;23.90;1.00
13375;DHT22;6756;51.354;15.754;2023-06-22T20:05:20;23.80;1.00
13375;DHT22;6756;51.354;15.754;2023-06-22T20:09:22;23.70;1.00
13375;DHT22;6756;51.354;15.754;2023-06-22T20:13:23;23.70;1.00
13375;DHT22;6756;51.354;15.754;2023-06-22T20:17:25;23.60;1.00
13375;DHT22;6756;51.354;15.754;2023-06-22T20:21:26;23.60;1.00
13375;DHT22;6756;51.354;15.754;2023-06-22T20:25:30;23.60;1.00
13375;DHT22;6756;51.354;15.754;2023-06-22T20:29:33;23.60;1.00
13375;DHT22;6756;51.354;15.754;2023-06-22T20:33:35;23.50;1.00
13375;DHT22;6756;51.354;15.754;2023-06-22T20:37:36;23.50;1.00
13375;DHT22;6756;51.354;15.754;2023-06-22T20:41:37;23.50;1.00
13375;DHT22;6756;51.354;15.754;2023-06-22T20:45:38;23.50;1.00
13375;DHT22;6756;51.354;15.754;2023-06-22T20:49:39;23.50;1.00
13375;DHT22;6756;51.354;15.754;2023-06-22T20:53:40;23.50;1.00
13375;DHT22;6756;51.354;15.754;2023-06-22T20:57:41;23.50;1.00
13375;DHT22;6756;51.354;15.754;2023-06-22T21:01:44;23.40;1.00
13375;DHT22;6756;51.354;15.754;2023-06-22T21:05:47;23.40;1.00
13375;DHT22;6756;51.354;15.754;2023-06-22T21:09:48;23.40;1.00
13375;DHT22;6756;51.354;15.754;2023-06-22T21:13:49;23.30;1.00
13375;DHT22;6756;51.354;15.754;2023-06-22T21:17:51;23.30;1.00
13375;DHT22;6756;51.354;15.754;2023-06-22T21:21:52;23.20;1.00
13375;DHT22;6756;51.354;15.754;2023-06-22T21:25:53;23.20;1.00
13375;DHT22;6756;51.354;15.754;2023-06-22T21:29:54;23.20;1.00
13375;DHT22;6756;51.354;15.754;2023-06-22T21:33:58;23.20;1.00
13375;DHT22;6756;51.354;15.754;2023-06-22T21:37:59;23.10;1.00
13375;DHT22;6756;51.354;15.754;2023-06-22T21:42:00;23.10;1.00
13375;DHT22;6756;51.354;15.754;2023-06-22T21:46:01;23.10;1.00
13375;DHT22;6756;51.354;15.754;2023-06-22T21:50:07;23.10;1.00
13375;DHT22;6756;51.354;15.754;2023-06-22T21:54:08;23.00;1.00
13375;DHT22;6756;51.354;15.754;2023-06-22T21:58:10;23.00;1.00
13375;DHT22;6756;51.354;15.754;2023-06-22T22:02:11;23.00;1.00
13375;DHT22;6756;51.354;15.754;2023-06-22T22:06:12;23.00;1.00
13375;DHT22;6756;51.354;15.754;2023-06-22T22:10:13;23.00;1.00
13375;DHT22;6756;51.354;15.754;2023-06-22T22:14:15;22.90;1.00
13375;DHT22;6756;51.354;15.754;2023-06-22T22:18:17;22.80;1.00
13375;DHT22;6756;51.354;15.754;2023-06-22T22:22:18;22.80;1.00
13375;DHT22;6756;51.354;15.754;2023-06-22T22:26:20;23.00;1.00
13375;DHT22;6756;51.354;15.754;2023-06-22T22:30:20;23.00;1.00
13375;DHT22;6756;51.354;15.754;2023-06-22T22:34:22;23.10;1.00
13375;DHT22;6756;51.354;15.754;2023-06-22T22:43:01;23.10;1.00
13375;DHT22;6756;51.354;15.754;2023-06-22T22:47:02;23.10;1.00
13375;DHT22;6756;51.354;15.754;2023-06-22T22:51:03;23.10;1.00
13375;DHT22;6756;51.354;15.754;2023-06-22T22:55:08;23.00;1.00
13375;DHT22;6756;51.354;15.754;2023-06-22T22:59:12;23.00;1.00
13375;DHT22;6756;51.354;15.754;2023-06-22T23:03:13;23.10;1.00
13375;DHT22;6756;51.354;15.754;2023-06-22T23:07:14;23.10;1.00
13375;DHT22;6756;51.354;15.754;2023-06-22T23:11:14;23.10;1.00
13375;DHT22;6756;51.354;15.754;2023-06-22T23:15:15;23.10;1.00
13375;DHT22;6756;51.354;15.754;2023-06-22T23:19:16;23.10;1.00
13375;DHT22;6756;51.354;15.754;2023-06-22T23:23:17;23.00;1.00
13375;DHT22;6756;51.354;15.754;2023-06-22T23:27:19;23.00;1.00
13375;DHT22;6756;51.354;15.754;2023-06-22T23:31:24;22.90;1.00
13375;DHT22;6756;51.354;15.754;2023-06-22T23:35:25;22.90;1.00
13375;DHT22;6756;51.354;15.754;2023-06-22T23:39:26;22.90;1.00
13375;DHT22;6756;51.354;15.754;2023-06-22T23:43:27;22.80;1.00
13375;DHT22;6756;51.354;15.754;2023-06-22T23:47:29;22.70;1.00
13375;DHT22;6756;51.354;15.754;2023-06-22T23:51:30;22.60;1.00
13375;DHT22;6756;51.354;15.754;2023-06-22T23:55:31;22.60;1.00
13375;DHT22;6756;51.354;15.754;2023-06-22T23:59:31;22.60;1.00
